Aeroporto :
LOGIN :

Iscrizione | Disclaimer

   EN    FR    IT 

 










Sommario :    VFR   VFR Marginale   IFR   IFR Intensivo   IFR Molto Intensivo
Visibilità : 
Base nubi : 
>= 8 km
>= 3000ft
5 / 8 km
1000 / 3000 ft
1500m / 5 km
500 / 1000 ft
800 / 1500m
200 / 500 ft
< 800m
< 200 ft
Simboli :   Temporali  Nebbia  Neve Forte  Precipitazioni Forti  Vento > 20 kt
SIGMETs :   Varie  Temporali  Ghiacco  Turbolenza  Onda orograficha  Ceneri Vulcaniche






- Altitudine del aeroporto : 287 ft


LFRL - Lanveoc Poulmic

ULTIMO METAR :
  • 050230Z AUTO 26011KT 8000 RA SCT016/// BKN026/// BKN031/// ///CB 06/05 Q0986

METARs OBSOLETI :
  • 050200Z AUTO 24009KT 9999 -RA SCT018/// BKN024/// BKN034/// ///TCU 06/04 Q0986
  • 050130Z AUTO 25010KT 9999 BKN023/// BKN050/// BKN074/// ///TCU 06/04 Q0986
  • 050100Z AUTO 25010KT 9999 SCT023 BKN029 BKN044 06/03 Q0986
  • 050030Z AUTO 26009KT 9999 SCT028 BKN039 BKN047 06/03 Q0987
  • 050000Z AUTO 27009KT 9999 BKN030 BKN045 OVC160 06/02 Q0987

TAF TAF LFRL
Valido dal 04 a 12 ore il 05 a 12 ore UTC


041100Z 0412/0512 32009KT 9999 FEW020TCU BKN030
TEMPO 0412/0512 32015G25KT 4000 SHRAGS BKN020CB
PROB30
TEMPO 0500/0509 2000 TSRAGS BKN014CB
BECMG 0507/0509 32025G40KT



MetMap, La meteo Aeronautica in un colpo d'occhio ! - Copyright ORBIFLY Dicembre 2007 - Disclaimer

ORBIFLY MET'MAP TEAM :

Programmazione e sviluppo : Alexandra Zaïnal
Concezione : Baudouin d'Aumeries
Aiuto per la programmazione : Marc-Olivier Méhu
Supporto tecnico e logistico : Manuel Goepfert
Aiuto per la traduzione : Arnaldo La Scala

Contatto : metmap@orbifly.com




FONTI E CREDITI :

   NOAA